sensor_id;sensor_type;location;lat;lon;timestamp;pressure;altitude;pressure_sealevel;temperature;humidity
75788;BME280;64406;50.024;14.492;2022-11-12T00:00:37;99715.00;;;3.89;91.76
75788;BME280;64406;50.024;14.492;2022-11-12T00:03:12;99697.56;;;3.80;91.79
75788;BME280;64406;50.024;14.492;2022-11-12T00:05:38;99708.84;;;3.82;92.06
75788;BME280;64406;50.024;14.492;2022-11-12T00:08:03;99714.38;;;3.80;92.13
75788;BME280;64406;50.024;14.492;2022-11-12T00:10:29;99697.16;;;3.76;92.55
75788;BME280;64406;50.024;14.492;2022-11-12T00:12:57;99701.25;;;3.79;92.56
75788;BME280;64406;50.024;14.492;2022-11-12T00:15:22;99709.81;;;3.74;92.61
75788;BME280;64406;50.024;14.492;2022-11-12T00:17:48;99715.34;;;3.73;92.54
75788;BME280;64406;50.024;14.492;2022-11-12T00:20:14;99715.97;;;3.75;92.70
75788;BME280;64406;50.024;14.492;2022-11-12T00:22:39;99710.81;;;3.67;92.66
75788;BME280;64406;50.024;14.492;2022-11-12T00:25:05;99708.16;;;3.67;92.70
75788;BME280;64406;50.024;14.492;2022-11-12T00:27:32;99713.88;;;3.64;92.50
75788;BME280;64406;50.024;14.492;2022-11-12T00:29:57;99720.22;;;3.63;92.56
75788;BME280;64406;50.024;14.492;2022-11-12T00:32:23;99725.94;;;3.60;92.64
75788;BME280;64406;50.024;14.492;2022-11-12T00:34:49;99729.03;;;3.57;92.83
75788;BME280;64406;50.024;14.492;2022-11-12T00:37:14;99719.75;;;3.52;92.51
75788;BME280;64406;50.024;14.492;2022-11-12T00:39:41;99718.50;;;3.48;92.74
75788;BME280;64406;50.024;14.492;2022-11-12T00:42:07;99723.81;;;3.48;92.48
75788;BME280;64406;50.024;14.492;2022-11-12T00:44:32;99716.63;;;3.42;92.61
75788;BME280;64406;50.024;14.492;2022-11-12T00:46:58;99720.34;;;3.48;92.35
75788;BME280;64406;50.024;14.492;2022-11-12T00:49:23;99725.28;;;3.51;92.77
75788;BME280;64406;50.024;14.492;2022-11-12T00:51:49;99708.00;;;3.40;92.57
75788;BME280;64406;50.024;14.492;2022-11-12T00:54:15;99723.78;;;3.42;92.98
75788;BME280;64406;50.024;14.492;2022-11-12T00:56:40;99725.78;;;3.33;92.62
75788;BME280;64406;50.024;14.492;2022-11-12T00:59:06;99711.16;;;3.22;92.52
75788;BME280;64406;50.024;14.492;2022-11-12T01:01:32;99717.94;;;3.25;92.51
75788;BME280;64406;50.024;14.492;2022-11-12T01:03:58;99723.03;;;3.20;92.53
75788;BME280;64406;50.024;14.492;2022-11-12T01:06:25;99719.53;;;3.19;92.96
75788;BME280;64406;50.024;14.492;2022-11-12T01:08:53;99713.59;;;3.17;92.82
75788;BME280;64406;50.024;14.492;2022-11-12T01:11:28;99718.97;;;3.24;92.73
75788;BME280;64406;50.024;14.492;2022-11-12T01:13:56;99721.63;;;3.24;92.78
75788;BME280;64406;50.024;14.492;2022-11-12T01:16:25;99720.38;;;3.20;92.93
75788;BME280;64406;50.024;14.492;2022-11-12T01:18:57;99711.09;;;3.16;92.58
75788;BME280;64406;50.024;14.492;2022-11-12T01:21:25;99709.66;;;3.13;92.68
75788;BME280;64406;50.024;14.492;2022-11-12T01:23:51;99706.50;;;3.03;92.90
75788;BME280;64406;50.024;14.492;2022-11-12T01:26:19;99696.63;;;2.97;92.63
75788;BME280;64406;50.024;14.492;2022-11-12T01:28:45;99691.47;;;2.89;92.90
75788;BME280;64406;50.024;14.492;2022-11-12T01:31:31;99706.22;;;2.91;92.88
75788;BME280;64406;50.024;14.492;2022-11-12T01:34:00;99710.13;;;2.95;93.18
75788;BME280;64406;50.024;14.492;2022-11-12T01:36:27;99695.38;;;2.93;92.57
75788;BME280;64406;50.024;14.492;2022-11-12T01:38:54;99707.94;;;2.99;92.94
75788;BME280;64406;50.024;14.492;2022-11-12T01:41:23;99701.34;;;2.95;92.96
75788;BME280;64406;50.024;14.492;2022-11-12T01:44:27;99705.47;;;2.97;93.22
75788;BME280;64406;50.024;14.492;2022-11-12T01:47:17;99709.72;;;2.92;92.96
75788;BME280;64406;50.024;14.492;2022-11-12T01:52:24;99713.97;;;2.86;92.92
75788;BME280;64406;50.024;14.492;2022-11-12T01:54:52;99714.09;;;2.78;93.00
75788;BME280;64406;50.024;14.492;2022-11-12T01:57:44;99702.59;;;2.71;92.85
75788;BME280;64406;50.024;14.492;2022-11-12T02:00:12;99707.06;;;2.70;93.17
75788;BME280;64406;50.024;14.492;2022-11-12T02:02:39;99705.19;;;2.64;93.14
75788;BME280;64406;50.024;14.492;2022-11-12T02:05:08;99714.97;;;2.64;93.14
75788;BME280;64406;50.024;14.492;2022-11-12T02:07:36;99714.34;;;2.62;93.07
75788;BME280;64406;50.024;14.492;2022-11-12T02:10:04;99704.41;;;2.49;92.97
75788;BME280;64406;50.024;14.492;2022-11-12T02:12:30;99690.03;;;2.43;92.96
75788;BME280;64406;50.024;14.492;2022-11-12T02:15:14;99698.34;;;2.55;93.06
75788;BME280;64406;50.024;14.492;2022-11-12T02:17:40;99694.66;;;2.56;93.34
75788;BME280;64406;50.024;14.492;2022-11-12T02:20:11;99695.59;;;2.49;93.13
75788;BME280;64406;50.024;14.492;2022-11-12T02:22:37;99696.75;;;2.39;92.73
75788;BME280;64406;50.024;14.492;2022-11-12T02:25:03;99689.97;;;2.37;93.07
75788;BME280;64406;50.024;14.492;2022-11-12T02:27:28;99680.03;;;2.45;93.12
75788;BME280;64406;50.024;14.492;2022-11-12T02:29:54;99681.94;;;2.52;92.90
75788;BME280;64406;50.024;14.492;2022-11-12T02:32:20;99676.88;;;2.35;93.10
75788;BME280;64406;50.024;14.492;2022-11-12T02:34:45;99688.50;;;2.34;93.18
75788;BME280;64406;50.024;14.492;2022-11-12T02:37:11;99678.97;;;2.18;93.02
75788;BME280;64406;50.024;14.492;2022-11-12T02:39:36;99680.81;;;2.03;93.04
75788;BME280;64406;50.024;14.492;2022-11-12T02:42:02;99672.16;;;1.95;93.11
75788;BME280;64406;50.024;14.492;2022-11-12T02:44:28;99676.38;;;1.89;93.21
75788;BME280;64406;50.024;14.492;2022-11-12T02:46:55;99678.94;;;1.82;93.24
75788;BME280;64406;50.024;14.492;2022-11-12T02:49:20;99699.56;;;1.80;92.91
75788;BME280;64406;50.024;14.492;2022-11-12T02:51:46;99686.41;;;1.72;93.08
75788;BME280;64406;50.024;14.492;2022-11-12T02:54:11;99685.47;;;1.80;92.96
75788;BME280;64406;50.024;14.492;2022-11-12T02:56:37;99676.56;;;1.87;93.15
75788;BME280;64406;50.024;14.492;2022-11-12T02:59:02;99676.84;;;1.93;93.06
75788;BME280;64406;50.024;14.492;2022-11-12T03:01:28;99684.50;;;2.02;93.28
75788;BME280;64406;50.024;14.492;2022-11-12T03:03:53;99675.53;;;1.88;93.21
75788;BME280;64406;50.024;14.492;2022-11-12T03:06:19;99687.53;;;1.84;93.22
75788;BME280;64406;50.024;14.492;2022-11-12T03:08:45;99689.69;;;1.74;92.75
75788;BME280;64406;50.024;14.492;2022-11-12T03:11:13;99695.53;;;1.70;92.93
75788;BME280;64406;50.024;14.492;2022-11-12T03:13:39;99691.34;;;1.60;92.93
75788;BME280;64406;50.024;14.492;2022-11-12T03:16:05;99692.09;;;1.54;92.96
75788;BME280;64406;50.024;14.492;2022-11-12T03:18:31;99692.28;;;1.53;92.97
75788;BME280;64406;50.024;14.492;2022-11-12T03:20:57;99698.66;;;1.44;93.01
75788;BME280;64406;50.024;14.492;2022-11-12T03:23:22;99694.47;;;1.34;93.16
75788;BME280;64406;50.024;14.492;2022-11-12T03:25:48;99693.84;;;1.32;92.83
75788;BME280;64406;50.024;14.492;2022-11-12T03:28:14;99686.31;;;1.21;93.02
75788;BME280;64406;50.024;14.492;2022-11-12T03:30:41;99699.06;;;1.26;92.79
75788;BME280;64406;50.024;14.492;2022-11-12T03:33:09;99689.50;;;1.17;92.83
75788;BME280;64406;50.024;14.492;2022-11-12T03:35:36;99700.31;;;1.15;93.09
75788;BME280;64406;50.024;14.492;2022-11-12T03:38:02;99708.56;;;1.20;92.95
75788;BME280;64406;50.024;14.492;2022-11-12T03:40:28;99699.78;;;1.20;92.96
75788;BME280;64406;50.024;14.492;2022-11-12T03:42:54;99701.94;;;1.16;92.72
75788;BME280;64406;50.024;14.492;2022-11-12T03:45:21;99706.91;;;1.19;93.23
75788;BME280;64406;50.024;14.492;2022-11-12T03:47:49;99688.13;;;1.06;92.80
75788;BME280;64406;50.024;14.492;2022-11-12T03:50:17;99708.47;;;1.14;92.89
75788;BME280;64406;50.024;14.492;2022-11-12T03:52:47;99695.25;;;1.05;92.77
75788;BME280;64406;50.024;14.492;2022-11-12T03:55:16;99702.22;;;1.06;92.79
75788;BME280;64406;50.024;14.492;2022-11-12T03:57:42;99704.41;;;1.03;92.89
75788;BME280;64406;50.024;14.492;2022-11-12T04:00:09;99694.31;;;0.98;92.88
75788;BME280;64406;50.024;14.492;2022-11-12T04:02:36;99692.78;;;1.04;92.97
75788;BME280;64406;50.024;14.492;2022-11-12T04:05:02;99690.03;;;0.97;92.96
75788;BME280;64406;50.024;14.492;2022-11-12T04:08:02;99690.13;;;1.04;93.13
75788;BME280;64406;50.024;14.492;2022-11-12T04:10:46;99689.13;;;1.05;93.25
75788;BME280;64406;50.024;14.492;2022-11-12T04:13:12;99681.97;;;1.05;93.00
75788;BME280;64406;50.024;14.492;2022-11-12T04:15:55;99688.06;;;1.14;92.97
75788;BME280;64406;50.024;14.492;2022-11-12T04:18:40;99673.03;;;1.21;93.05
75788;BME280;64406;50.024;14.492;2022-11-12T04:21:44;99684.09;;;1.25;93.14
75788;BME280;64406;50.024;14.492;2022-11-12T04:24:17;99682.66;;;1.22;92.87
75788;BME280;64406;50.024;14.492;2022-11-12T04:27:02;99677.72;;;1.19;93.23
75788;BME280;64406;50.024;14.492;2022-11-12T04:29:27;99683.19;;;1.18;92.99
75788;BME280;64406;50.024;14.492;2022-11-12T04:32:11;99681.28;;;1.26;93.12
75788;BME280;64406;50.024;14.492;2022-11-12T04:34:37;99672.41;;;1.19;93.22
75788;BME280;64406;50.024;14.492;2022-11-12T04:37:04;99660.03;;;1.12;93.03
75788;BME280;64406;50.024;14.492;2022-11-12T04:39:30;99658.56;;;1.09;93.10
75788;BME280;64406;50.024;14.492;2022-11-12T04:41:56;99671.84;;;1.09;93.20
75788;BME280;64406;50.024;14.492;2022-11-12T04:44:41;99668.47;;;1.00;92.97
75788;BME280;64406;50.024;14.492;2022-11-12T04:47:28;99677.06;;;1.02;92.97
75788;BME280;64406;50.024;14.492;2022-11-12T04:49:54;99667.16;;;0.96;93.36
75788;BME280;64406;50.024;14.492;2022-11-12T04:52:20;99673.19;;;1.05;93.09
75788;BME280;64406;50.024;14.492;2022-11-12T04:54:46;99674.78;;;0.99;93.13
75788;BME280;64406;50.024;14.492;2022-11-12T04:57:11;99678.88;;;1.02;93.17
75788;BME280;64406;50.024;14.492;2022-11-12T04:59:37;99674.69;;;1.07;93.59
75788;BME280;64406;50.024;14.492;2022-11-12T05:02:02;99677.69;;;1.04;92.70
75788;BME280;64406;50.024;14.492;2022-11-12T05:04:28;99667.00;;;1.27;92.80
75788;BME280;64406;50.024;14.492;2022-11-12T05:06:55;99665.72;;;1.23;93.21
75788;BME280;64406;50.024;14.492;2022-11-12T05:09:26;99659.16;;;1.19;93.25
75788;BME280;64406;50.024;14.492;2022-11-12T05:11:52;99658.28;;;1.19;93.02
75788;BME280;64406;50.024;14.492;2022-11-12T05:14:20;99651.63;;;1.08;93.08
75788;BME280;64406;50.024;14.492;2022-11-12T05:16:47;99669.38;;;1.07;93.08
75788;BME280;64406;50.024;14.492;2022-11-12T05:19:12;99666.00;;;1.14;92.76
75788;BME280;64406;50.024;14.492;2022-11-12T05:21:38;99669.56;;;1.06;93.02
75788;BME280;64406;50.024;14.492;2022-11-12T05:24:23;99666.97;;;0.98;93.09
75788;BME280;64406;50.024;14.492;2022-11-12T05:26:49;99674.19;;;0.89;93.07
75788;BME280;64406;50.024;14.492;2022-11-12T05:29:14;99672.19;;;0.91;93.20
75788;BME280;64406;50.024;14.492;2022-11-12T05:31:41;99660.19;;;0.80;92.78
75788;BME280;64406;50.024;14.492;2022-11-12T05:34:06;99663.84;;;0.79;92.80
75788;BME280;64406;50.024;14.492;2022-11-12T05:36:32;99667.94;;;0.67;93.07
75788;BME280;64406;50.024;14.492;2022-11-12T05:38:58;99683.66;;;0.69;93.06
75788;BME280;64406;50.024;14.492;2022-11-12T05:41:25;99684.38;;;0.63;92.97
75788;BME280;64406;50.024;14.492;2022-11-12T05:43:50;99679.59;;;0.58;93.14
75788;BME280;64406;50.024;14.492;2022-11-12T05:46:16;99675.38;;;0.49;93.02
75788;BME280;64406;50.024;14.492;2022-11-12T05:48:42;99680.50;;;0.50;92.75
75788;BME280;64406;50.024;14.492;2022-11-12T05:51:07;99682.97;;;0.52;92.93
75788;BME280;64406;50.024;14.492;2022-11-12T05:53:33;99683.56;;;0.39;92.81
75788;BME280;64406;50.024;14.492;2022-11-12T05:56:05;99685.25;;;0.32;92.99
75788;BME280;64406;50.024;14.492;2022-11-12T05:58:32;99683.81;;;0.30;93.04
75788;BME280;64406;50.024;14.492;2022-11-12T06:00:57;99668.31;;;0.18;92.98
75788;BME280;64406;50.024;14.492;2022-11-12T06:03:23;99685.56;;;0.14;93.21
75788;BME280;64406;50.024;14.492;2022-11-12T06:05:49;99685.97;;;0.03;92.72
75788;BME280;64406;50.024;14.492;2022-11-12T06:08:15;99687.84;;;-0.06;92.90
75788;BME280;64406;50.024;14.492;2022-11-12T06:10:40;99694.97;;;-0.06;92.81
75788;BME280;64406;50.024;14.492;2022-11-12T06:13:06;99680.59;;;-0.12;92.69
75788;BME280;64406;50.024;14.492;2022-11-12T06:15:32;99695.94;;;-0.07;92.53
75788;BME280;64406;50.024;14.492;2022-11-12T06:17:58;99698.94;;;-0.10;92.76
75788;BME280;64406;50.024;14.492;2022-11-12T06:20:23;99687.66;;;-0.04;92.70
75788;BME280;64406;50.024;14.492;2022-11-12T06:22:49;99693.97;;;-0.05;92.69
75788;BME280;64406;50.024;14.492;2022-11-12T06:25:16;99702.69;;;0.04;92.79
75788;BME280;64406;50.024;14.492;2022-11-12T06:27:41;99708.22;;;0.17;92.53
75788;BME280;64406;50.024;14.492;2022-11-12T06:30:07;99709.41;;;0.14;92.65
75788;BME280;64406;50.024;14.492;2022-11-12T06:32:33;99712.88;;;0.15;92.57
75788;BME280;64406;50.024;14.492;2022-11-12T06:34:59;99713.06;;;0.13;92.73
75788;BME280;64406;50.024;14.492;2022-11-12T06:37:25;99716.25;;;0.32;92.76
75788;BME280;64406;50.024;14.492;2022-11-12T06:39:50;99721.09;;;0.28;92.79
75788;BME280;64406;50.024;14.492;2022-11-12T06:42:16;99728.66;;;0.31;92.77
75788;BME280;64406;50.024;14.492;2022-11-12T06:44:42;99729.50;;;0.32;92.82
75788;BME280;64406;50.024;14.492;2022-11-12T06:47:08;99727.28;;;0.43;92.94
75788;BME280;64406;50.024;14.492;2022-11-12T06:49:34;99736.47;;;0.56;92.33
75788;BME280;64406;50.024;14.492;2022-11-12T06:52:00;99735.94;;;0.60;93.06
75788;BME280;64406;50.024;14.492;2022-11-12T06:54:25;99738.88;;;0.65;92.96
75788;BME280;64406;50.024;14.492;2022-11-12T06:56:51;99747.31;;;0.69;92.50
75788;BME280;64406;50.024;14.492;2022-11-12T06:59:17;99730.66;;;0.60;92.80
75788;BME280;64406;50.024;14.492;2022-11-12T07:01:42;99737.78;;;0.60;92.93
75788;BME280;64406;50.024;14.492;2022-11-12T07:04:08;99744.06;;;0.59;92.62
75788;BME280;64406;50.024;14.492;2022-11-12T07:06:35;99756.59;;;0.65;92.53
75788;BME280;64406;50.024;14.492;2022-11-12T07:09:01;99751.38;;;0.57;92.81
75788;BME280;64406;50.024;14.492;2022-11-12T07:11:26;99746.94;;;0.49;92.67
75788;BME280;64406;50.024;14.492;2022-11-12T07:13:54;99745.72;;;0.60;92.57
75788;BME280;64406;50.024;14.492;2022-11-12T07:16:19;99744.53;;;0.62;92.58
75788;BME280;64406;50.024;14.492;2022-11-12T07:18:47;99750.47;;;0.64;92.82
75788;BME280;64406;50.024;14.492;2022-11-12T07:21:19;99736.66;;;0.54;92.68
75788;BME280;64406;50.024;14.492;2022-11-12T07:23:45;99759.50;;;0.55;92.67
75788;BME280;64406;50.024;14.492;2022-11-12T07:26:17;99762.16;;;0.55;92.33
75788;BME280;64406;50.024;14.492;2022-11-12T07:28:43;99749.41;;;0.50;91.70
75788;BME280;64406;50.024;14.492;2022-11-12T07:31:11;99755.34;;;0.52;92.71
75788;BME280;64406;50.024;14.492;2022-11-12T07:33:37;99755.34;;;0.52;92.59
75788;BME280;64406;50.024;14.492;2022-11-12T07:36:08;99762.34;;;0.53;92.37
75788;BME280;64406;50.024;14.492;2022-11-12T07:38:36;99757.03;;;0.53;92.08
75788;BME280;64406;50.024;14.492;2022-11-12T07:41:04;99767.75;;;0.60;92.47
75788;BME280;64406;50.024;14.492;2022-11-12T07:43:31;99763.41;;;0.67;91.99
75788;BME280;64406;50.024;14.492;2022-11-12T07:46:01;99760.75;;;0.67;92.20
75788;BME280;64406;50.024;14.492;2022-11-12T07:48:31;99763.66;;;0.72;92.12
75788;BME280;64406;50.024;14.492;2022-11-12T07:51:10;99773.94;;;0.75;92.11
75788;BME280;64406;50.024;14.492;2022-11-12T07:53:37;99763.97;;;0.77;92.19
75788;BME280;64406;50.024;14.492;2022-11-12T07:56:03;99768.56;;;0.84;91.95
75788;BME280;64406;50.024;14.492;2022-11-12T07:58:30;99761.44;;;0.84;92.21
75788;BME280;64406;50.024;14.492;2022-11-12T08:00:56;99768.97;;;0.95;92.08
75788;BME280;64406;50.024;14.492;2022-11-12T08:03:23;99755.34;;;0.98;92.04
75788;BME280;64406;50.024;14.492;2022-11-12T08:05:48;99762.25;;;1.07;92.00
75788;BME280;64406;50.024;14.492;2022-11-12T08:08:14;99755.31;;;1.06;92.15
75788;BME280;64406;50.024;14.492;2022-11-12T08:10:40;99759.34;;;1.32;91.96
75788;BME280;64406;50.024;14.492;2022-11-12T08:13:05;99748.09;;;1.45;91.92
75788;BME280;64406;50.024;14.492;2022-11-12T08:15:31;99752.88;;;1.49;91.95
75788;BME280;64406;50.024;14.492;2022-11-12T08:17:57;99746.28;;;1.60;91.61
75788;BME280;64406;50.024;14.492;2022-11-12T08:20:22;99749.13;;;1.73;91.39
75788;BME280;64406;50.024;14.492;2022-11-12T08:22:48;99755.91;;;1.76;91.31
75788;BME280;64406;50.024;14.492;2022-11-12T08:25:14;99742.28;;;1.79;90.87
75788;BME280;64406;50.024;14.492;2022-11-12T08:27:40;99741.88;;;1.82;90.66
75788;BME280;64406;50.024;14.492;2022-11-12T08:30:06;99736.47;;;1.75;90.98
75788;BME280;64406;50.024;14.492;2022-11-12T08:32:32;99741.41;;;1.93;90.74
75788;BME280;64406;50.024;14.492;2022-11-12T08:34:57;99736.72;;;2.10;90.71
75788;BME280;64406;50.024;14.492;2022-11-12T08:37:23;99733.88;;;2.11;90.78
75788;BME280;64406;50.024;14.492;2022-11-12T08:39:48;99749.31;;;2.23;90.49
75788;BME280;64406;50.024;14.492;2022-11-12T08:42:14;99737.44;;;2.18;90.79
75788;BME280;64406;50.024;14.492;2022-11-12T08:44:40;99738.22;;;2.34;90.78
75788;BME280;64406;50.024;14.492;2022-11-12T08:47:06;99740.41;;;2.30;90.83
75788;BME280;64406;50.024;14.492;2022-11-12T08:49:31;99741.13;;;2.39;90.90
75788;BME280;64406;50.024;14.492;2022-11-12T08:51:57;99747.41;;;2.53;90.80
75788;BME280;64406;50.024;14.492;2022-11-12T08:54:23;99739.78;;;2.64;90.71
75788;BME280;64406;50.024;14.492;2022-11-12T08:56:49;99752.28;;;2.70;90.38
75788;BME280;64406;50.024;14.492;2022-11-12T08:59:14;99752.34;;;2.77;90.94
75788;BME280;64406;50.024;14.492;2022-11-12T09:01:40;99749.75;;;2.84;90.73
75788;BME280;64406;50.024;14.492;2022-11-12T09:04:06;99752.03;;;2.87;90.61
75788;BME280;64406;50.024;14.492;2022-11-12T09:06:32;99748.69;;;2.99;90.34
75788;BME280;64406;50.024;14.492;2022-11-12T09:08:57;99741.25;;;2.95;90.50
75788;BME280;64406;50.024;14.492;2022-11-12T09:11:23;99746.56;;;2.95;90.39
75788;BME280;64406;50.024;14.492;2022-11-12T09:13:51;99748.69;;;2.99;90.47
75788;BME280;64406;50.024;14.492;2022-11-12T09:16:17;99756.53;;;3.08;90.55
75788;BME280;64406;50.024;14.492;2022-11-12T09:18:43;99755.75;;;3.14;90.82
75788;BME280;64406;50.024;14.492;2022-11-12T09:21:10;99762.97;;;3.20;90.77
75788;BME280;64406;50.024;14.492;2022-11-12T09:23:36;99762.88;;;3.35;90.63
75788;BME280;64406;50.024;14.492;2022-11-12T09:26:03;99763.53;;;3.43;89.85
75788;BME280;64406;50.024;14.492;2022-11-12T09:28:29;99756.84;;;3.54;90.08
75788;BME280;64406;50.024;14.492;2022-11-12T09:30:55;99762.44;;;3.59;89.27
75788;BME280;64406;50.024;14.492;2022-11-12T09:33:26;99759.03;;;3.72;89.26
75788;BME280;64406;50.024;14.492;2022-11-12T09:35:52;99751.28;;;3.77;89.27
75788;BME280;64406;50.024;14.492;2022-11-12T09:38:19;99753.34;;;3.88;88.74
75788;BME280;64406;50.024;14.492;2022-11-12T09:43:23;99742.78;;;4.08;88.18
75788;BME280;64406;50.024;14.492;2022-11-12T09:45:52;99752.66;;;4.14;87.61
75788;BME280;64406;50.024;14.492;2022-11-12T09:48:32;99746.53;;;4.20;87.77
75788;BME280;64406;50.024;14.492;2022-11-12T09:51:04;99730.75;;;4.25;87.51
75788;BME280;64406;50.024;14.492;2022-11-12T09:54:03;99747.63;;;4.46;87.08
75788;BME280;64406;50.024;14.492;2022-11-12T09:56:31;99747.22;;;4.55;87.66
75788;BME280;64406;50.024;14.492;2022-11-12T09:58:57;99743.16;;;4.73;87.21
75788;BME280;64406;50.024;14.492;2022-11-12T10:01:37;99732.50;;;4.79;86.94
75788;BME280;64406;50.024;14.492;2022-11-12T10:07:27;99724.50;;;5.06;85.27
75788;BME280;64406;50.024;14.492;2022-11-12T10:10:01;99725.75;;;5.16;86.05
75788;BME280;64406;50.024;14.492;2022-11-12T10:15:46;99717.69;;;5.50;84.20
75788;BME280;64406;50.024;14.492;2022-11-12T10:21:29;99706.78;;;5.51;85.11
75788;BME280;64406;50.024;14.492;2022-11-12T10:23:59;99719.31;;;5.51;85.08
75788;BME280;64406;50.024;14.492;2022-11-12T10:26:25;99706.97;;;5.56;84.30
75788;BME280;64406;50.024;14.492;2022-11-12T10:31:37;99698.53;;;5.53;83.14
75788;BME280;64406;50.024;14.492;2022-11-12T10:36:39;99690.72;;;5.64;83.40
75788;BME280;64406;50.024;14.492;2022-11-12T10:39:07;99697.28;;;5.68;82.64
75788;BME280;64406;50.024;14.492;2022-11-12T10:41:32;99698.06;;;5.82;82.12
75788;BME280;64406;50.024;14.492;2022-11-12T10:44:00;99694.97;;;5.92;82.06
75788;BME280;64406;50.024;14.492;2022-11-12T10:46:29;99695.97;;;5.97;81.88
75788;BME280;64406;50.024;14.492;2022-11-12T10:49:39;99690.19;;;6.00;81.31
75788;BME280;64406;50.024;14.492;2022-11-12T10:51:57;99685.16;;;6.17;80.83
75788;BME280;64406;50.024;14.492;2022-11-12T10:56:52;99692.00;;;6.45;79.93
75788;BME280;64406;50.024;14.492;2022-11-12T10:59:21;99694.94;;;6.68;81.09
75788;BME280;64406;50.024;14.492;2022-11-12T11:01:55;99681.28;;;6.76;80.35
75788;BME280;64406;50.024;14.492;2022-11-12T11:04:26;99686.09;;;6.93;80.45
75788;BME280;64406;50.024;14.492;2022-11-12T11:06:58;99691.78;;;7.03;78.84
75788;BME280;64406;50.024;14.492;2022-11-12T11:09:25;99680.06;;;7.22;77.20
75788;BME280;64406;50.024;14.492;2022-11-12T11:11:52;99682.75;;;7.22;76.81
75788;BME280;64406;50.024;14.492;2022-11-12T11:16:54;99689.63;;;7.36;75.42
75788;BME280;64406;50.024;14.492;2022-11-12T11:19:30;99681.00;;;7.34;74.56
75788;BME280;64406;50.024;14.492;2022-11-12T11:22:13;99690.81;;;7.41;75.35
75788;BME280;64406;50.024;14.492;2022-11-12T11:24:50;99691.72;;;7.53;75.13
75788;BME280;64406;50.024;14.492;2022-11-12T11:27:31;99678.91;;;7.55;73.05
75788;BME280;64406;50.024;14.492;2022-11-12T11:35:31;99670.25;;;7.89;71.09
75788;BME280;64406;50.024;14.492;2022-11-12T11:38:24;99674.88;;;8.01;74.68
75788;BME280;64406;50.024;14.492;2022-11-12T11:46:37;99670.63;;;8.23;74.57
75788;BME280;64406;50.024;14.492;2022-11-12T11:57:51;99663.94;;;8.74;72.92
75788;BME280;64406;50.024;14.492;2022-11-12T12:00:21;99657.41;;;8.93;71.58
75788;BME280;64406;50.024;14.492;2022-11-12T12:08:46;99672.38;;;9.01;71.11
75788;BME280;64406;50.024;14.492;2022-11-12T12:11:33;99677.16;;;8.99;70.92
75788;BME280;64406;50.024;14.492;2022-11-12T12:14:21;99674.38;;;9.06;70.55
75788;BME280;64406;50.024;14.492;2022-11-12T12:23:02;99677.06;;;9.06;71.21
75788;BME280;64406;50.024;14.492;2022-11-12T12:25:33;99666.19;;;9.01;70.71
75788;BME280;64406;50.024;14.492;2022-11-12T12:28:11;99670.06;;;9.05;71.57
75788;BME280;64406;50.024;14.492;2022-11-12T12:30:44;99664.56;;;8.99;71.66
75788;BME280;64406;50.024;14.492;2022-11-12T12:36:01;99659.72;;;8.90;72.35
75788;BME280;64406;50.024;14.492;2022-11-12T12:44:03;99658.34;;;8.87;72.88
75788;BME280;64406;50.024;14.492;2022-11-12T12:46:32;99659.50;;;8.80;73.61
75788;BME280;64406;50.024;14.492;2022-11-12T12:49:02;99657.38;;;8.70;73.18
75788;BME280;64406;50.024;14.492;2022-11-12T12:51:30;99659.94;;;8.77;72.96
75788;BME280;64406;50.024;14.492;2022-11-12T12:53:57;99651.06;;;8.76;72.66
75788;BME280;64406;50.024;14.492;2022-11-12T12:58:55;99657.84;;;8.67;73.18
75788;BME280;64406;50.024;14.492;2022-11-12T13:03:51;99655.78;;;9.16;71.83
75788;BME280;64406;50.024;14.492;2022-11-12T13:17:00;99649.22;;;9.47;69.82
75788;BME280;64406;50.024;14.492;2022-11-12T13:19:27;99644.66;;;9.47;70.33
75788;BME280;64406;50.024;14.492;2022-11-12T13:40:45;99646.66;;;8.93;72.40
75788;BME280;64406;50.024;14.492;2022-11-12T13:45:47;99641.03;;;8.83;72.19
75788;BME280;64406;50.024;14.492;2022-11-12T13:48:17;99639.16;;;8.84;72.63
75788;BME280;64406;50.024;14.492;2022-11-12T13:50:49;99638.13;;;8.85;73.26
75788;BME280;64406;50.024;14.492;2022-11-12T13:53:21;99634.75;;;9.13;71.44
75788;BME280;64406;50.024;14.492;2022-11-12T13:55:49;99633.69;;;9.14;71.94
75788;BME280;64406;50.024;14.492;2022-11-12T13:58:25;99641.75;;;9.02;72.89
75788;BME280;64406;50.024;14.492;2022-11-12T14:00:54;99629.94;;;9.38;72.00
75788;BME280;64406;50.024;14.492;2022-11-12T14:03:20;99615.69;;;10.35;68.20
75788;BME280;64406;50.024;14.492;2022-11-12T14:05:49;99619.69;;;11.16;64.80
75788;BME280;64406;50.024;14.492;2022-11-12T14:08:26;99620.69;;;11.49;64.41
75788;BME280;64406;50.024;14.492;2022-11-12T14:14:28;99622.31;;;11.94;61.69
75788;BME280;64406;50.024;14.492;2022-11-12T14:22:35;99607.00;;;12.00;61.19
75788;BME280;64406;50.024;14.492;2022-11-12T14:25:02;99609.81;;;11.66;61.85
75788;BME280;64406;50.024;14.492;2022-11-12T14:30:22;99603.47;;;10.61;64.74
75788;BME280;64406;50.024;14.492;2022-11-12T14:32:56;99616.66;;;9.72;67.87
75788;BME280;64406;50.024;14.492;2022-11-12T14:35:32;99609.16;;;8.98;70.13
75788;BME280;64406;50.024;14.492;2022-11-12T14:38:03;99609.44;;;8.43;72.44
75788;BME280;64406;50.024;14.492;2022-11-12T14:40:32;99610.28;;;8.14;74.23
75788;BME280;64406;50.024;14.492;2022-11-12T14:42:59;99613.66;;;7.79;75.09
75788;BME280;64406;50.024;14.492;2022-11-12T14:45:25;99611.72;;;7.50;76.60
75788;BME280;64406;50.024;14.492;2022-11-12T14:47:51;99611.13;;;7.29;77.82
75788;BME280;64406;50.024;14.492;2022-11-12T14:50:22;99605.47;;;7.01;78.46
75788;BME280;64406;50.024;14.492;2022-11-12T14:52:56;99603.13;;;6.86;79.32
75788;BME280;64406;50.024;14.492;2022-11-12T14:55:29;99602.28;;;6.67;79.60
75788;BME280;64406;50.024;14.492;2022-11-12T14:57:55;99603.25;;;6.48;79.89
75788;BME280;64406;50.024;14.492;2022-11-12T15:02:56;99602.94;;;5.99;81.74
75788;BME280;64406;50.024;14.492;2022-11-12T15:05:22;99609.00;;;5.82;82.60